FAMM/MBD METAR and TAF weather

Enter ICAO airport designator
Station Type Date Time Source
FAMM METAR 2019/08/21 22:00 UTC NOAA

FAMM 212200Z AUTO 04005KT //// // ////// 11/03 Q1031


Station Type Date Time Source
FAMM Decoded METAR 2019/08/21 22:00 UTC NOAA

Station name not available
Aug 21, 2019 - 06:00 PM EDT / 2019.08.21 2200 UTC
Wind: from the NE (040 degrees) at 6 MPH (5 KT):0
Temperature: 51 F (11 C)
Dew Point: 37 F (3 C)
Relative Humidity: 57%
Pressure (altimeter): 30.45 in. Hg (1031 hPa)
ob: FAMM 212200Z AUTO 04005KT //// // ////// 11/03 Q1031
cycle: 22

Station Type Date Time Source
FAMM TAF 2019/01/01 10:00 UTC NOAA

TAF FAMM 010900Z 0110/0118 04008KT 9999 BKN015
BECMG 0111/0113 34010KT BKN025 TX25/0113Z TN22/0118Z

Example: see airport list